Pagrindinis puslapis
METAR-TAF:

METAR-TAF

Oro uostai :

Chiang Rai, Tailandas

platuma: 19-57-08N, ilguma: 099-52-59E, Aukštis: 390 m

Dabartinis oras

Ataskaita buvo paskelbta 28 minutes, ne 20:00 UTC
Ramus vėjas
Temperatūra 25°C
Drėgmė 100%
Slėgis 1009 hPa
Matomumas 10 km arba daugiau
Mažai debesys ne aukštis 3000 ft

METAR: VTCT 222000Z 00000KT 9999 FEW030 25/25 Q1009 NOSIG

Laikas: 03:28 (20:28 UTC)

Prognozė

Ataskaita buvo paskelbta 3 valandos ir 28 minutes, ne 17:00 UTC
Prognozė galioja nuo 22 metu 18 UTC su 23 metu 24 UTC
Vėjas 5 kt iš Pietų
Matomumas 10 km arba daugiau
Išsisklaidę debesys ne aukštis 2500 ft
Laikinai
nuo 23 metu 08 UTC su 23 metu 12 UTC
Vėjas 15 kt iš Pietų/Pietvakarių
Matomumas: 4000 m
Mažai debesys ne aukštis 1800 ft, Liūtiniai kamuoliniai debesys.
Su prošvaistėmis ne aukštis 2500 ft
perkūnija, lietus

TAF: VTCT 221700Z 2218/2324 18005KT 9999 SCT025 TEMPO 2308/2312 20015KT 4000 TSRA FEW018CB BKN025

Orai ataskaitas ir orų prognozės (METAR, TAF).

turimą stotys yra geltonos ir raudonos taškus žemėlapyje.

Perkelti pele per norėdami pamatyti stoties vardą.

Tada spustelėkite, norėdami matyti oro stebėjimo ir prognozės.

Norėdami pakeisti žemėlapį: spustelėkite ant žalios mygtukų su juodo kryžiaus žemyn,; žalią mygtuką su brūkšneliu, jei norite nutolinti; arba žalių rodyklių gretimoms žemėlapius.


METAR-TAF: